Time;durP1;ratioP1;P1;durP2;ratioP2;P2;SDS_P1;SDS_P2;PMS_P1;PMS_P2;Temp;Humidity;BMP_temperature;BMP_pressure;BME280_temperature;BME280_humidity;BME280_pressure;Samples;Min_cycle;Max_cycle;Signal;HPM_P1;HPM_P2
2023/08/06 00:02:07;;;;;;;2.30;1.08;;;20.30;99.90;;;;;;10085445;28;20095;-76
2023/08/06 00:06:58;;;;;;;1.17;1.05;;;20.30;99.90;;;;;;10073801;28;20033;-74
2023/08/06 00:11:48;;;;;;;1.20;0.75;;;20.20;99.90;;;;;;10095575;28;20048;-75
2023/08/06 00:16:39;;;;;;;1.08;0.95;;;20.30;99.90;;;;;;10095711;28;20483;-75
2023/08/06 00:21:30;;;;;;;1.02;0.80;;;20.20;99.90;;;;;;10080759;28;20049;-75
2023/08/06 00:26:20;;;;;;;1.48;0.90;;;20.20;99.90;;;;;;10098965;28;20036;-76
2023/08/06 00:31:11;;;;;;;1.33;1.20;;;20.20;99.90;;;;;;10085564;28;20054;-76
2023/08/06 00:36:02;;;;;;;1.33;0.88;;;20.20;99.90;;;;;;10114904;28;20036;-76
2023/08/06 00:40:53;;;;;;;1.38;0.88;;;20.00;99.90;;;;;;10084780;28;20074;-76
2023/08/06 00:45:44;;;;;;;1.85;0.93;;;20.00;99.90;;;;;;10083744;28;20067;-76
2023/08/06 00:50:34;;;;;;;2.85;0.95;;;20.10;99.90;;;;;;10102155;28;20525;-75
2023/08/06 00:55:25;;;;;;;1.52;1.15;;;20.10;99.90;;;;;;10101806;28;20037;-76
2023/08/06 01:00:16;;;;;;;2.33;0.95;;;20.10;99.90;;;;;;10101394;28;20036;-77
2023/08/06 01:05:07;;;;;;;1.42;1.17;;;20.10;99.90;;;;;;10083294;28;20161;-77
2023/08/06 01:10:34;;;;;;;3.35;1.40;;;20.00;99.90;;;;;;10097179;28;20357;-76
2023/08/06 01:15:32;;;;;;;4.53;1.60;;;19.90;99.90;;;;;;10034615;28;20052;-76
2023/08/06 01:20:31;;;;;;;2.65;1.10;;;20.00;99.90;;;;;;10093378;28;20031;-77
2023/08/06 01:25:30;;;;;;;5.03;2.38;;;20.00;99.90;;;;;;10073764;28;20033;-76
2023/08/06 01:30:36;;;;;;;1.55;1.17;;;19.80;99.90;;;;;;10100980;28;20033;-76
2023/08/06 01:35:27;;;;;;;1.85;1.48;;;19.70;99.90;;;;;;10100556;28;20060;-76
2023/08/06 01:40:18;;;;;;;2.35;1.20;;;19.90;99.90;;;;;;10070663;28;20213;-75
2023/08/06 01:45:10;;;;;;;5.15;1.27;;;19.90;99.90;;;;;;10066839;28;20258;-75
2023/08/06 01:50:00;;;;;;;5.13;1.80;;;19.60;99.90;;;;;;10097963;28;20032;-76
2023/08/06 01:54:51;;;;;;;1.00;0.70;;;19.20;99.90;;;;;;10098296;28;20024;-75
2023/08/06 01:59:42;;;;;;;2.17;0.93;;;18.90;99.90;;;;;;10080889;28;20033;-75
2023/08/06 02:04:32;;;;;;;1.55;0.63;;;18.70;99.90;;;;;;10099168;28;20089;-76
2023/08/06 02:09:23;;;;;;;1.15;0.77;;;18.80;99.90;;;;;;10080815;28;20033;-75
2023/08/06 02:14:14;;;;;;;1.13;0.50;;;18.80;99.90;;;;;;10098955;28;20060;-75
2023/08/06 02:19:04;;;;;;;2.00;0.50;;;18.40;99.90;;;;;;10098314;28;20079;-75
2023/08/06 02:23:55;;;;;;;0.70;0.32;;;18.40;99.90;;;;;;10098082;28;20128;-75
2023/08/06 02:28:45;;;;;;;0.93;0.60;;;18.40;99.90;;;;;;10080171;28;20128;-74
2023/08/06 02:33:36;;;;;;;0.93;0.40;;;18.60;99.90;;;;;;10080454;28;20041;-75
2023/08/06 02:38:27;;;;;;;1.13;0.60;;;18.70;99.90;;;;;;10098220;28;20518;-75
2023/08/06 02:43:18;;;;;;;2.72;0.68;;;18.80;99.90;;;;;;10097867;28;20036;-75
2023/08/06 02:48:08;;;;;;;1.45;0.40;;;18.90;99.90;;;;;;10097084;28;20033;-74
2023/08/06 02:52:59;;;;;;;1.58;0.32;;;18.70;99.90;;;;;;10098193;28;20063;-75
2023/08/06 02:57:50;;;;;;;0.85;0.40;;;18.80;99.90;;;;;;10097245;28;20040;-76
2023/08/06 03:02:40;;;;;;;0.30;0.30;;;18.70;99.90;;;;;;10096095;28;20402;-74
2023/08/06 03:07:31;;;;;;;0.88;0.47;;;18.70;99.90;;;;;;10075572;28;20028;-75
2023/08/06 03:12:22;;;;;;;0.93;0.50;;;18.70;99.90;;;;;;10092760;28;20434;-76
2023/08/06 03:17:12;;;;;;;1.67;0.47;;;18.70;99.90;;;;;;10094838;28;20032;-77
2023/08/06 03:22:03;;;;;;;0.45;0.32;;;18.80;99.90;;;;;;10085176;28;20086;-76
2023/08/06 03:26:54;;;;;;;2.20;1.45;;;18.70;99.90;;;;;;10092517;28;20021;-77
2023/08/06 03:31:44;;;;;;;2.95;0.80;;;18.60;99.90;;;;;;10085941;28;20035;-76
2023/08/06 03:36:35;;;;;;;0.98;0.73;;;18.60;99.90;;;;;;10084511;28;20453;-75
2023/08/06 03:41:25;;;;;;;0.95;0.85;;;18.60;99.90;;;;;;10070494;28;20590;-76
2023/08/06 03:46:16;;;;;;;1.95;1.05;;;18.60;99.90;;;;;;10088785;28;20502;-76
2023/08/06 03:51:07;;;;;;;2.00;0.75;;;18.70;99.90;;;;;;10097010;28;20117;-76
2023/08/06 03:55:59;;;;;;;1.20;0.60;;;18.80;99.90;;;;;;10078087;28;20115;-77
2023/08/06 04:00:58;;;;;;;5.07;0.70;;;18.70;99.90;;;;;;10101086;28;20537;-76
2023/08/06 04:05:49;;;;;;;1.42;0.55;;;18.60;99.90;;;;;;10078885;28;20052;-76
2023/08/06 04:10:40;;;;;;;2.65;0.88;;;18.60;99.90;;;;;;10102036;28;20043;-76
2023/08/06 04:15:33;;;;;;;0.70;0.50;;;18.70;99.90;;;;;;10103914;28;20025;-76
2023/08/06 04:20:23;;;;;;;2.65;0.68;;;18.60;99.90;;;;;;10100096;28;20079;-75
2023/08/06 04:25:14;;;;;;;0.88;0.52;;;18.50;99.90;;;;;;10102547;28;20565;-76
2023/08/06 04:30:05;;;;;;;0.90;0.65;;;18.40;99.90;;;;;;10102701;28;20538;-75
2023/08/06 04:34:56;;;;;;;1.63;0.60;;;18.60;99.90;;;;;;10102992;28;20180;-75
2023/08/06 04:39:47;;;;;;;1.05;0.28;;;18.70;99.90;;;;;;10103142;28;20144;-75
2023/08/06 04:44:38;;;;;;;0.57;0.35;;;18.50;99.90;;;;;;10102317;28;20041;-75
2023/08/06 04:49:29;;;;;;;0.95;0.28;;;18.40;99.90;;;;;;10101987;28;20044;-76
2023/08/06 04:54:19;;;;;;;0.30;0.20;;;18.30;99.90;;;;;;10102870;28;20094;-76
2023/08/06 04:59:10;;;;;;;1.90;0.32;;;18.30;99.90;;;;;;10101573;28;20581;-76
2023/08/06 05:04:01;;;;;;;1.45;0.30;;;18.20;99.90;;;;;;10100783;28;20041;-76
2023/08/06 05:08:51;;;;;;;0.75;0.75;;;18.20;99.90;;;;;;10095059;28;20408;-76
2023/08/06 05:13:42;;;;;;;0.28;0.20;;;18.10;99.90;;;;;;10100641;28;20291;-75
2023/08/06 05:18:34;;;;;;;1.02;0.20;;;18.20;99.90;;;;;;10105810;28;20025;-75
2023/08/06 05:23:24;;;;;;;1.02;0.30;;;18.10;99.90;;;;;;10100711;28;20032;-75
2023/08/06 05:28:15;;;;;;;0.50;0.13;;;18.10;99.90;;;;;;10082976;28;20033;-76
2023/08/06 05:33:06;;;;;;;0.40;0.20;;;18.00;99.90;;;;;;10100776;28;20037;-77
2023/08/06 05:37:57;;;;;;;0.60;0.60;;;17.90;99.90;;;;;;10084409;28;20035;-75
2023/08/06 05:42:47;;;;;;;0.73;0.15;;;17.90;99.90;;;;;;10082228;28;20046;-75
2023/08/06 05:47:38;;;;;;;0.15;0.10;;;17.90;99.90;;;;;;10100674;28;20642;-76
2023/08/06 05:52:28;;;;;;;0.30;0.20;;;17.90;99.90;;;;;;10100057;28;20498;-76
2023/08/06 05:57:19;;;;;;;0.08;0.08;;;17.90;99.90;;;;;;10098967;28;20032;-77
2023/08/06 06:02:10;;;;;;;1.67;0.80;;;17.90;99.90;;;;;;10099289;28;20446;-75
2023/08/06 06:07:00;;;;;;;0.95;0.85;;;17.90;99.90;;;;;;10095488;28;20079;-77
2023/08/06 06:11:51;;;;;;;1.80;0.17;;;17.90;99.90;;;;;;10098632;28;20037;-76
2023/08/06 06:16:42;;;;;;;0.52;0.40;;;18.00;99.90;;;;;;10098977;28;20031;-78
2023/08/06 06:21:32;;;;;;;0.20;0.10;;;17.80;99.90;;;;;;10098934;28;20037;-76
2023/08/06 06:26:23;;;;;;;0.20;0.20;;;17.90;99.90;;;;;;10098330;28;20045;-75
2023/08/06 06:31:14;;;;;;;0.20;0.20;;;17.80;99.90;;;;;;10101091;28;20544;-75
2023/08/06 06:36:07;;;;;;;0.57;0.30;;;17.80;99.90;;;;;;10099171;28;20036;-78
2023/08/06 06:40:58;;;;;;;0.15;0.10;;;18.00;99.90;;;;;;10099086;28;20029;-75
2023/08/06 06:45:53;;;;;;;0.75;0.40;;;18.00;99.90;;;;;;10098132;28;20485;-76
2023/08/06 06:50:48;;;;;;;0.60;0.25;;;17.70;99.90;;;;;;10098630;28;20060;-75
2023/08/06 06:55:38;;;;;;;0.22;0.20;;;17.80;99.90;;;;;;10097737;28;20036;-75
2023/08/06 07:00:29;;;;;;;0.65;0.20;;;17.90;99.90;;;;;;10097903;28;20507;-75
2023/08/06 07:05:19;;;;;;;1.23;0.40;;;17.90;99.90;;;;;;10096877;28;20128;-76
2023/08/06 07:10:11;;;;;;;0.65;0.40;;;17.90;99.90;;;;;;10093391;28;20029;-74
2023/08/06 07:15:01;;;;;;;0.68;0.38;;;17.80;99.90;;;;;;10096916;28;20032;-76
2023/08/06 07:19:52;;;;;;;0.63;0.47;;;17.80;99.90;;;;;;10098159;28;20040;-75
2023/08/06 07:24:42;;;;;;;2.95;0.50;;;18.00;99.90;;;;;;10096308;28;20037;-75
2023/08/06 07:29:33;;;;;;;2.08;0.43;;;17.90;99.90;;;;;;10079534;28;20035;-75
2023/08/06 07:34:26;;;;;;;1.75;0.77;;;17.90;99.90;;;;;;10083293;28;20039;-74
2023/08/06 07:39:17;;;;;;;0.77;0.43;;;17.90;99.90;;;;;;10084640;28;20032;-75
2023/08/06 07:44:08;;;;;;;0.65;0.52;;;17.90;99.90;;;;;;10096969;28;20094;-77
2023/08/06 07:48:59;;;;;;;0.93;0.40;;;17.70;99.90;;;;;;10078405;28;20029;-76
2023/08/06 07:53:49;;;;;;;0.85;0.30;;;17.90;99.90;;;;;;10097880;28;20035;-75
2023/08/06 07:58:40;;;;;;;1.08;0.40;;;18.00;99.90;;;;;;10095963;28;20204;-76
2023/08/06 08:03:30;;;;;;;0.30;0.30;;;18.00;99.90;;;;;;10078890;28;20136;-75
2023/08/06 08:08:21;;;;;;;0.75;0.40;;;18.00;99.90;;;;;;10088144;28;20716;-75
2023/08/06 08:13:12;;;;;;;1.15;0.13;;;17.90;99.90;;;;;;10064052;28;20545;-75
2023/08/06 08:18:02;;;;;;;0.40;0.20;;;17.90;99.90;;;;;;10073898;28;20021;-75
2023/08/06 08:22:53;;;;;;;0.80;0.40;;;18.00;99.90;;;;;;10088269;28;20037;-75
2023/08/06 08:27:44;;;;;;;0.20;0.17;;;18.10;99.90;;;;;;10088087;28;20036;-76
2023/08/06 08:32:34;;;;;;;0.47;0.20;;;18.00;99.90;;;;;;10094852;28;20040;-76
2023/08/06 08:37:25;;;;;;;0.20;0.20;;;18.10;99.90;;;;;;10095431;28;20529;-76
2023/08/06 08:42:16;;;;;;;0.10;0.10;;;18.20;99.90;;;;;;10077709;28;20087;-76
2023/08/06 08:47:09;;;;;;;0.32;0.20;;;18.20;99.90;;;;;;10097862;28;20453;-74
2023/08/06 08:52:02;;;;;;;0.30;0.30;;;18.00;99.90;;;;;;10101995;28;20021;-75
2023/08/06 08:56:54;;;;;;;0.30;0.22;;;17.90;99.90;;;;;;10083843;28;20082;-75
2023/08/06 09:01:51;;;;;;;0.30;0.30;;;17.80;99.90;;;;;;10107778;28;20086;-76
2023/08/06 09:06:42;;;;;;;0.60;0.30;;;17.70;99.90;;;;;;10079226;28;20419;-75
2023/08/06 09:11:42;;;;;;;0.05;0.05;;;17.70;99.90;;;;;;10100966;28;20052;-75
2023/08/06 09:16:37;;;;;;;0.20;0.20;;;17.60;99.90;;;;;;10082879;28;20029;-76
2023/08/06 09:21:28;;;;;;;0.40;0.20;;;17.60;99.90;;;;;;10101255;28;20029;-75
2023/08/06 09:26:19;;;;;;;0.28;0.15;;;17.70;99.90;;;;;;10100242;28;20040;-75
2023/08/06 09:31:10;;;;;;;0.08;0.03;;;17.70;99.90;;;;;;10101084;28;20024;-74
2023/08/06 09:36:10;;;;;;;0.10;0.10;;;17.70;99.90;;;;;;10100780;28;20021;-75
2023/08/06 09:41:01;;;;;;;0.98;0.08;;;17.80;99.90;;;;;;10100472;28;20039;-76
2023/08/06 09:45:52;;;;;;;0.10;0.10;;;17.70;99.90;;;;;;10100076;28;20033;-76
2023/08/06 09:50:43;;;;;;;0.55;0.30;;;17.70;99.90;;;;;;10100484;28;20033;-75
2023/08/06 09:55:34;;;;;;;0.17;0.10;;;17.70;99.90;;;;;;10099861;28;20649;-75
2023/08/06 10:00:25;;;;;;;0.03;0.03;;;17.70;99.90;;;;;;10099936;28;20075;-76
2023/08/06 10:05:17;;;;;;;0.88;0.20;;;17.70;99.90;;;;;;10099368;28;20048;-76
2023/08/06 10:10:07;;;;;;;0.98;0.30;;;17.60;99.90;;;;;;10094621;28;20087;-76
2023/08/06 10:15:01;;;;;;;1.58;0.80;;;17.70;99.90;;;;;;10080563;28;20172;-77
2023/08/06 10:19:55;;;;;;;1.17;0.88;;;17.70;99.90;;;;;;10098667;28;20060;-77
2023/08/06 10:25:04;;;;;;;0.43;0.43;;;17.70;99.90;;;;;;10093436;28;20454;-77
2023/08/06 10:29:55;;;;;;;0.63;0.60;;;17.80;99.90;;;;;;10078673;28;20047;-77
2023/08/06 10:34:58;;;;;;;0.88;0.80;;;17.70;99.90;;;;;;10080190;28;20513;-79
2023/08/06 10:39:51;;;;;;;2.25;0.60;;;17.60;99.90;;;;;;10098555;28;20040;-76
2023/08/06 10:45:16;;;;;;;3.30;0.77;;;17.60;99.90;;;;;;10080181;28;20377;-77
2023/08/06 10:50:11;;;;;;;1.23;0.80;;;17.50;99.90;;;;;;10098485;28;20134;-77
2023/08/06 10:55:01;;;;;;;2.40;0.90;;;17.60;99.90;;;;;;10097457;28;20044;-75
2023/08/06 10:59:52;;;;;;;1.58;0.90;;;17.70;99.90;;;;;;10098241;28;20021;-76
2023/08/06 11:04:43;;;;;;;2.50;0.70;;;17.80;99.90;;;;;;10097109;28;20037;-76
2023/08/06 11:09:33;;;;;;;1.15;1.02;;;17.80;99.90;;;;;;10100703;28;20025;-76
2023/08/06 11:14:24;;;;;;;1.17;0.60;;;17.90;99.90;;;;;;10096239;28;20084;-76
2023/08/06 11:19:16;;;;;;;2.92;0.82;;;17.90;99.90;;;;;;10096569;28;20032;-76
2023/08/06 11:24:06;;;;;;;1.80;0.88;;;18.00;99.90;;;;;;10095741;28;20112;-77
2023/08/06 11:28:58;;;;;;;2.13;1.00;;;18.00;99.90;;;;;;10068818;28;20123;-77
2023/08/06 11:33:51;;;;;;;1.40;0.77;;;18.00;99.90;;;;;;10077030;28;20116;-76
2023/08/06 11:38:41;;;;;;;1.05;0.60;;;18.20;99.90;;;;;;10092359;28;20560;-76
2023/08/06 11:43:32;;;;;;;0.60;0.50;;;18.20;99.90;;;;;;10076603;28;20036;-76
2023/08/06 11:48:23;;;;;;;1.70;0.50;;;18.30;99.90;;;;;;10096478;28;20035;-76
2023/08/06 11:53:15;;;;;;;1.95;0.52;;;18.30;99.90;;;;;;10096784;28;20410;-77
2023/08/06 11:58:05;;;;;;;0.50;0.45;;;18.30;99.90;;;;;;10095712;28;20052;-76
2023/08/06 12:02:57;;;;;;;0.30;0.30;;;18.20;99.90;;;;;;10078762;28;20033;-76
2023/08/06 12:07:49;;;;;;;0.68;0.50;;;18.20;99.90;;;;;;10074410;28;20048;-76
2023/08/06 12:12:40;;;;;;;0.43;0.40;;;18.30;99.90;;;;;;10095787;28;20403;-77
2023/08/06 12:17:30;;;;;;;1.10;0.50;;;18.30;99.90;;;;;;10099413;28;20033;-76
2023/08/06 12:22:21;;;;;;;0.65;0.38;;;18.20;99.90;;;;;;10099644;28;20040;-77
2023/08/06 12:27:13;;;;;;;0.55;0.30;;;18.20;99.90;;;;;;10103326;28;20046;-75
2023/08/06 12:32:04;;;;;;;1.90;0.40;;;18.20;99.90;;;;;;10103429;28;20104;-75
2023/08/06 12:36:54;;;;;;;0.38;0.38;;;18.30;99.90;;;;;;10102739;28;20029;-76
2023/08/06 12:41:45;;;;;;;0.60;0.30;;;18.30;99.90;;;;;;10085016;28;20052;-77
2023/08/06 12:46:36;;;;;;;1.55;0.63;;;18.40;99.90;;;;;;10102065;28;20032;-75
2023/08/06 12:51:27;;;;;;;1.17;0.45;;;18.70;99.90;;;;;;10102322;28;20090;-75
2023/08/06 12:56:17;;;;;;;1.63;0.32;;;18.90;99.90;;;;;;10101895;28;20036;-76
2023/08/06 13:01:08;;;;;;;0.55;0.55;;;18.90;99.90;;;;;;10101876;28;20025;-76
2023/08/06 13:05:59;;;;;;;2.15;0.68;;;18.70;99.90;;;;;;10100060;28;20037;-75
2023/08/06 13:10:49;;;;;;;3.33;0.63;;;18.20;99.90;;;;;;10094323;28;20586;-75
2023/08/06 13:15:40;;;;;;;0.90;0.85;;;17.70;99.90;;;;;;10083696;28;20454;-75
2023/08/06 13:20:31;;;;;;;2.78;0.77;;;17.60;99.90;;;;;;10101357;28;20376;-75
2023/08/06 13:25:22;;;;;;;0.30;0.30;;;17.60;99.90;;;;;;10082514;28;20332;-74
2023/08/06 13:30:13;;;;;;;0.50;0.40;;;17.70;99.90;;;;;;10100673;28;20335;-75
2023/08/06 13:35:04;;;;;;;0.40;0.40;;;17.60;99.90;;;;;;10101201;28;20029;-75
2023/08/06 13:39:55;;;;;;;1.08;0.70;;;17.80;99.90;;;;;;10089879;28;20057;-76
2023/08/06 13:44:46;;;;;;;2.67;1.10;;;17.90;99.90;;;;;;10085876;28;20439;-75
2023/08/06 13:49:36;;;;;;;0.75;0.50;;;18.50;99.90;;;;;;10097905;28;20032;-75
2023/08/06 13:54:27;;;;;;;0.80;0.55;;;18.80;99.90;;;;;;10100987;28;20029;-76
2023/08/06 13:59:19;;;;;;;3.22;0.52;;;18.80;99.90;;;;;;10098336;28;20033;-75
2023/08/06 14:04:10;;;;;;;0.80;0.47;;;19.00;99.90;;;;;;10099240;28;20182;-76
2023/08/06 14:09:01;;;;;;;0.75;0.50;;;19.30;99.90;;;;;;10095623;28;20086;-76
2023/08/06 14:13:51;;;;;;;0.55;0.50;;;19.40;99.90;;;;;;10080954;28;20127;-74
2023/08/06 14:18:42;;;;;;;1.30;0.50;;;19.10;99.90;;;;;;10099645;28;20051;-76
2023/08/06 14:23:33;;;;;;;0.95;0.68;;;19.00;99.90;;;;;;10098773;28;20033;-75
2023/08/06 14:28:23;;;;;;;1.50;0.55;;;19.50;99.90;;;;;;10098582;28;20029;-75
2023/08/06 14:33:14;;;;;;;1.00;0.52;;;19.70;99.90;;;;;;10093787;28;20163;-76
2023/08/06 14:38:05;;;;;;;0.75;0.60;;;19.50;99.90;;;;;;10097776;28;20018;-74
2023/08/06 14:42:55;;;;;;;1.00;0.50;;;19.20;99.90;;;;;;10097497;28;20048;-74
2023/08/06 14:47:46;;;;;;;2.33;0.50;;;18.90;99.90;;;;;;10097789;28;20025;-76
2023/08/06 14:52:37;;;;;;;1.23;0.68;;;18.70;99.90;;;;;;10097716;28;20058;-75
2023/08/06 14:57:28;;;;;;;0.90;0.57;;;18.70;99.90;;;;;;10098354;28;20021;-75
2023/08/06 15:02:19;;;;;;;0.80;0.80;;;19.20;99.90;;;;;;10098059;28;20028;-77
2023/08/06 15:07:09;;;;;;;0.85;0.40;;;19.40;99.90;;;;;;10074837;28;20032;-75
2023/08/06 15:12:00;;;;;;;0.45;0.45;;;19.30;99.90;;;;;;10078531;28;20056;-75
2023/08/06 15:16:51;;;;;;;1.08;0.60;;;19.00;99.90;;;;;;10096612;28;20044;-75
2023/08/06 15:21:43;;;;;;;0.82;0.38;;;18.80;99.90;;;;;;10099290;28;20033;-76
2023/08/06 15:26:34;;;;;;;2.58;0.85;;;18.70;99.90;;;;;;10078296;28;20037;-75
2023/08/06 15:31:37;;;;;;;0.93;0.63;;;18.60;99.90;;;;;;10097359;28;20032;-76
2023/08/06 15:36:27;;;;;;;1.10;0.70;;;18.70;99.90;;;;;;10096368;28;20024;-76
2023/08/06 15:41:18;;;;;;;1.70;0.73;;;18.70;99.90;;;;;;10096216;28;20040;-75
2023/08/06 15:46:09;;;;;;;1.48;0.90;;;18.70;99.90;;;;;;10095531;28;20334;-74
2023/08/06 15:50:59;;;;;;;1.80;1.00;;;18.70;99.90;;;;;;10096135;28;20033;-74
2023/08/06 15:55:50;;;;;;;2.55;0.80;;;18.80;99.90;;;;;;10081016;28;20082;-74
2023/08/06 16:00:41;;;;;;;2.10;0.77;;;18.90;99.90;;;;;;10108725;28;20016;-75
2023/08/06 16:05:31;;;;;;;1.13;0.70;;;19.00;99.90;;;;;;10085919;28;20132;-75
2023/08/06 16:10:22;;;;;;;1.70;0.50;;;18.90;99.90;;;;;;10107079;28;20044;-74
2023/08/06 16:15:18;;;;;;;1.23;0.60;;;18.80;99.90;;;;;;10103375;28;20581;-77
2023/08/06 16:20:10;;;;;;;1.45;0.98;;;18.70;99.90;;;;;;10103282;28;20410;-76
2023/08/06 16:25:00;;;;;;;1.45;0.93;;;18.70;99.90;;;;;;10103172;28;20099;-75
2023/08/06 16:29:51;;;;;;;1.73;1.10;;;18.80;99.90;;;;;;10103904;28;20033;-75
2023/08/06 16:34:41;;;;;;;3.60;0.80;;;19.00;99.90;;;;;;10102796;28;20371;-76
2023/08/06 16:39:32;;;;;;;2.92;0.90;;;19.20;99.90;;;;;;10093680;28;20033;-74
2023/08/06 16:44:23;;;;;;;2.63;0.65;;;19.10;99.90;;;;;;10109354;28;20032;-75
2023/08/06 16:49:13;;;;;;;3.17;1.10;;;19.20;99.90;;;;;;10084228;28;20033;-74
2023/08/06 16:54:04;;;;;;;0.85;0.70;;;19.10;99.90;;;;;;10101620;28;20390;-74
2023/08/06 16:58:55;;;;;;;1.00;0.82;;;19.10;99.90;;;;;;10085468;28;20036;-74
2023/08/06 17:03:45;;;;;;;1.33;0.75;;;19.10;99.90;;;;;;10101740;28;20036;-77
2023/08/06 17:08:36;;;;;;;1.75;0.85;;;19.10;99.90;;;;;;10097024;28;20116;-72
2023/08/06 17:13:27;;;;;;;2.15;0.90;;;19.20;99.90;;;;;;10101416;28;20103;-70
2023/08/06 17:18:18;;;;;;;1.02;0.95;;;19.30;99.90;;;;;;10067656;28;20021;-72
2023/08/06 17:23:09;;;;;;;1.30;0.70;;;19.30;99.90;;;;;;10107057;28;20045;-71
2023/08/06 17:28:01;;;;;;;2.72;0.73;;;19.30;99.90;;;;;;10103575;28;20024;-72
2023/08/06 17:32:51;;;;;;;2.55;0.88;;;19.20;99.90;;;;;;10104882;28;20426;-71
2023/08/06 17:37:42;;;;;;;2.97;1.10;;;19.10;99.90;;;;;;10100413;28;20032;-71
2023/08/06 17:42:33;;;;;;;1.83;1.23;;;19.10;99.90;;;;;;10080543;28;20488;-71
2023/08/06 17:47:24;;;;;;;1.75;1.00;;;19.20;99.90;;;;;;10085823;28;20021;-69
2023/08/06 17:52:15;;;;;;;2.88;1.20;;;19.10;99.90;;;;;;10092793;28;20041;-73
2023/08/06 17:57:09;;;;;;;0.82;0.80;;;19.20;99.90;;;;;;10095792;28;20036;-71
2023/08/06 18:02:00;;;;;;;2.30;0.82;;;19.10;99.90;;;;;;10071045;28;20025;-70
2023/08/06 18:06:51;;;;;;;2.50;1.20;;;19.00;99.90;;;;;;10075969;28;20086;-70
2023/08/06 18:11:41;;;;;;;1.58;1.35;;;19.00;99.90;;;;;;10087989;28;20049;-73
2023/08/06 18:16:32;;;;;;;1.45;0.90;;;18.90;99.90;;;;;;10091452;28;20029;-73
2023/08/06 18:21:23;;;;;;;1.45;0.93;;;18.80;99.90;;;;;;10085368;28;20033;-74
2023/08/06 18:26:14;;;;;;;2.25;1.42;;;17.90;99.90;;;;;;10091162;28;20048;-73
2023/08/06 18:31:04;;;;;;;1.50;0.90;;;17.40;99.90;;;;;;10091739;28;20079;-74
2023/08/06 18:35:55;;;;;;;1.98;0.88;;;17.20;99.90;;;;;;10076219;28;20035;-68
2023/08/06 18:40:46;;;;;;;1.67;0.70;;;17.20;99.90;;;;;;10083472;28;20166;-69
2023/08/06 18:45:39;;;;;;;1.88;0.93;;;17.30;99.90;;;;;;10083774;28;20044;-69
2023/08/06 18:50:35;;;;;;;1.52;0.88;;;17.20;99.90;;;;;;10086662;28;20046;-70
2023/08/06 18:55:25;;;;;;;2.20;0.95;;;17.40;99.90;;;;;;10085804;28;20032;-70
2023/08/06 19:00:16;;;;;;;1.15;0.82;;;17.40;99.90;;;;;;10086937;28;20035;-71
2023/08/06 19:05:07;;;;;;;1.52;1.00;;;17.40;99.90;;;;;;10090721;28;20692;-70
2023/08/06 19:09:58;;;;;;;1.45;0.95;;;17.60;99.90;;;;;;10070601;28;20072;-70
2023/08/06 19:14:49;;;;;;;1.90;1.17;;;17.70;99.90;;;;;;10087524;28;20033;-70
2023/08/06 19:19:43;;;;;;;1.55;0.80;;;17.70;99.90;;;;;;10073210;28;20422;-70
2023/08/06 19:24:34;;;;;;;1.95;0.95;;;17.60;99.90;;;;;;10091977;28;20037;-68
2023/08/06 19:29:25;;;;;;;1.60;0.98;;;17.50;99.90;;;;;;10082627;28;20116;-69
2023/08/06 19:34:16;;;;;;;0.98;0.68;;;17.60;99.90;;;;;;10086681;28;20021;-68
2023/08/06 19:39:06;;;;;;;2.38;0.80;;;17.40;99.90;;;;;;10078685;28;20036;-70
2023/08/06 19:43:57;;;;;;;4.03;0.95;;;17.40;99.90;;;;;;10080822;28;20614;-70
2023/08/06 19:48:50;;;;;;;1.65;1.20;;;17.40;99.90;;;;;;10064523;28;20030;-69
2023/08/06 19:53:42;;;;;;;1.48;0.70;;;17.30;99.90;;;;;;10084237;28;20482;-69
2023/08/06 19:58:34;;;;;;;1.20;0.80;;;17.50;99.90;;;;;;10087733;28;20482;-68
2023/08/06 20:03:25;;;;;;;1.25;0.70;;;17.40;99.90;;;;;;10091316;28;20467;-68
2023/08/06 20:08:17;;;;;;;3.17;1.55;;;17.30;99.90;;;;;;10067554;28;20119;-68
2023/08/06 20:13:08;;;;;;;2.20;1.27;;;17.30;99.90;;;;;;10080450;28;20098;-69
2023/08/06 20:17:59;;;;;;;1.33;0.75;;;17.20;99.90;;;;;;10083793;28;20021;-69
2023/08/06 20:22:50;;;;;;;2.45;0.65;;;17.30;99.90;;;;;;10079368;28;20041;-69
2023/08/06 20:27:40;;;;;;;1.15;0.95;;;17.20;99.90;;;;;;10089599;28;20029;-70
2023/08/06 20:32:31;;;;;;;1.83;0.73;;;17.20;99.90;;;;;;10089654;28;20429;-68
2023/08/06 20:37:22;;;;;;;2.30;0.98;;;17.40;99.90;;;;;;10073619;28;20040;-69
2023/08/06 20:42:12;;;;;;;1.20;0.63;;;17.40;99.90;;;;;;10088263;28;20047;-68
2023/08/06 20:47:04;;;;;;;1.83;0.70;;;17.40;99.90;;;;;;10107021;28;20443;-69
2023/08/06 20:51:55;;;;;;;2.10;0.70;;;17.40;99.90;;;;;;10097968;28;20457;-69
2023/08/06 20:56:46;;;;;;;1.48;0.80;;;17.40;99.90;;;;;;10099836;28;20041;-69
2023/08/06 21:01:36;;;;;;;1.73;1.20;;;17.30;99.90;;;;;;10089752;28;20441;-69
2023/08/06 21:06:27;;;;;;;1.13;0.60;;;17.30;99.90;;;;;;10085645;28;20189;-69
2023/08/06 21:11:18;;;;;;;0.82;0.57;;;17.10;99.90;;;;;;10072627;28;20183;-69
2023/08/06 21:16:09;;;;;;;0.85;0.70;;;17.10;99.90;;;;;;10084755;28;20127;-69
2023/08/06 21:21:01;;;;;;;1.42;0.80;;;17.20;99.90;;;;;;10107687;28;20116;-69
2023/08/06 21:25:57;;;;;;;2.08;0.88;;;17.20;99.90;;;;;;10108563;28;20036;-69
2023/08/06 21:30:58;;;;;;;1.08;0.45;;;17.20;99.90;;;;;;10094590;28;20033;-69
2023/08/06 21:35:49;;;;;;;1.10;0.68;;;17.20;99.90;;;;;;10094357;28;20029;-69
2023/08/06 21:40:39;;;;;;;2.22;0.70;;;17.00;99.90;;;;;;10108028;28;20021;-69
2023/08/06 21:45:34;;;;;;;1.52;0.80;;;16.90;99.90;;;;;;10099929;28;20136;-68
2023/08/06 21:50:25;;;;;;;1.30;1.02;;;16.90;99.90;;;;;;10089133;28;20115;-67
2023/08/06 21:55:16;;;;;;;1.23;0.70;;;16.90;99.90;;;;;;10095892;28;20558;-70
2023/08/06 22:00:07;;;;;;;1.20;0.60;;;16.90;99.90;;;;;;10098924;28;20029;-70
2023/08/06 22:04:58;;;;;;;2.78;0.80;;;16.90;99.90;;;;;;10080283;28;20379;-68
2023/08/06 22:09:48;;;;;;;0.93;0.70;;;16.80;99.90;;;;;;10104063;28;20028;-68
2023/08/06 22:14:39;;;;;;;1.50;0.77;;;16.80;99.90;;;;;;10098116;28;20055;-67
2023/08/06 22:19:30;;;;;;;1.48;0.60;;;16.80;99.90;;;;;;10085051;28;20042;-68
2023/08/06 22:24:21;;;;;;;1.85;0.52;;;16.90;99.90;;;;;;10097945;28;20414;-68
2023/08/06 22:29:12;;;;;;;1.38;1.02;;;17.00;99.90;;;;;;10099382;28;20032;-68
2023/08/06 22:34:02;;;;;;;2.05;0.50;;;17.10;99.90;;;;;;10098025;28;20025;-68
2023/08/06 22:38:53;;;;;;;1.63;0.80;;;17.10;99.90;;;;;;10098501;28;20388;-67
2023/08/06 22:43:44;;;;;;;2.28;1.48;;;17.00;99.90;;;;;;10097243;28;20036;-67
2023/08/06 22:48:34;;;;;;;1.48;0.68;;;16.90;99.90;;;;;;10097796;28;20112;-68
2023/08/06 22:53:25;;;;;;;0.52;0.47;;;16.90;99.90;;;;;;10097268;28;20028;-67
2023/08/06 22:58:16;;;;;;;1.05;0.47;;;16.90;99.90;;;;;;10097803;28;20137;-67
2023/08/06 23:03:06;;;;;;;0.85;0.60;;;16.90;99.90;;;;;;10088933;28;20124;-67
2023/08/06 23:07:57;;;;;;;2.58;1.05;;;16.90;99.90;;;;;;10079767;28;20479;-67
2023/08/06 23:12:47;;;;;;;1.20;0.68;;;16.90;99.90;;;;;;10095584;28;20068;-67
2023/08/06 23:17:38;;;;;;;0.95;0.63;;;16.80;99.90;;;;;;10103568;28;20055;-67
2023/08/06 23:22:29;;;;;;;1.65;0.77;;;17.00;99.90;;;;;;10082698;28;20037;-67
2023/08/06 23:27:20;;;;;;;4.43;0.70;;;16.90;99.90;;;;;;10101610;28;20037;-67
2023/08/06 23:32:11;;;;;;;2.55;0.50;;;17.00;99.90;;;;;;10090608;28;20053;-69
2023/08/06 23:37:02;;;;;;;0.55;0.55;;;16.90;99.90;;;;;;10101684;28;20021;-68
2023/08/06 23:41:53;;;;;;;2.55;1.27;;;16.90;99.90;;;;;;10096397;28;20036;-68
2023/08/06 23:46:43;;;;;;;1.13;0.68;;;16.90;99.90;;;;;;10096163;28;20044;-68
2023/08/06 23:51:34;;;;;;;1.45;0.70;;;16.90;99.90;;;;;;10096606;28;20116;-68
2023/08/06 23:56:25;;;;;;;1.35;0.77;;;16.90;99.90;;;;;;10095467;28;20106;-68
